FKH4101 UZTT-UGSB
Flight info
| Callsign | FKH4101 |
|---|---|
| Flight time | N/A |
| Altitude | 34000 |
| Route | DIBAD2A DIBAD N193 OGOLI T898 DARVA/N0452F340 B476 METKA L88 NIJAT N644 ODILI |
| Aircraft | B753/M-SDE2E3FGHIJ3J4J7RWXY/LB1 |
Departure
| Time | 2026-04-29 11:42 |
|---|---|
| Airport | Tashkent International Airport (UZTT) |
Arrival
| Time | N/A |
|---|---|
| Airport | Alexander Kartveli Batumi International Airport (UGSB) |
| Time | Latitude | Longitude | Altitude | Speed | Heading |
|---|---|---|---|---|---|
| 2026-04-29 11:18 | 41.26210 | 69.27323 | 1423 ft | 0 kts | 81° |
| 2026-04-29 11:30 | 41.26210 | 69.27313 | 1423 ft | 2 kts | 96° |
| 2026-04-29 11:31 | 41.26208 | 69.27294 | 1423 ft | 2 kts | 71° |
| 2026-04-29 11:31 | 41.26203 | 69.27276 | 1423 ft | 2 kts | 67° |
| 2026-04-29 11:31 | 41.26196 | 69.27258 | 1423 ft | 2 kts | 58° |
| 2026-04-29 11:31 | 41.26188 | 69.27241 | 1423 ft | 2 kts | 51° |
| 2026-04-29 11:32 | 41.26178 | 69.27227 | 1423 ft | 2 kts | 43° |
| 2026-04-29 11:32 | 41.26166 | 69.27214 | 1423 ft | 2 kts | 35° |
| 2026-04-29 11:32 | 41.26154 | 69.27203 | 1423 ft | 2 kts | 36° |
| 2026-04-29 11:32 | 41.26144 | 69.27188 | 1423 ft | 2 kts | 67° |
| 2026-04-29 11:33 | 41.26141 | 69.27168 | 1423 ft | 2 kts | 91° |
| 2026-04-29 11:33 | 41.26144 | 69.27149 | 1423 ft | 2 kts | 116° |
| 2026-04-29 11:33 | 41.26153 | 69.27133 | 1423 ft | 2 kts | 141° |
| 2026-04-29 11:33 | 41.26161 | 69.27125 | 1423 ft | 0 kts | 142° |
| 2026-04-29 11:34 | 41.26162 | 69.27123 | 1423 ft | 0 kts | 141° |
| 2026-04-29 11:36 | 41.26158 | 69.27128 | 1423 ft | 5 kts | 139° |
| 2026-04-29 11:36 | 41.26093 | 69.27205 | 1423 ft | 14 kts | 138° |
| 2026-04-29 11:36 | 41.26018 | 69.27293 | 1423 ft | 13 kts | 138° |
| 2026-04-29 11:36 | 41.25953 | 69.27370 | 1423 ft | 11 kts | 139° |
| 2026-04-29 11:37 | 41.25897 | 69.27433 | 1423 ft | 9 kts | 139° |
| 2026-04-29 11:37 | 41.25834 | 69.27506 | 1423 ft | 17 kts | 138° |
| 2026-04-29 11:37 | 41.25745 | 69.27622 | 1423 ft | 17 kts | 140° |
| 2026-04-29 11:37 | 41.25651 | 69.27714 | 1423 ft | 13 kts | 167° |
| 2026-04-29 11:38 | 41.25609 | 69.27668 | 1423 ft | 5 kts | 251° |
| 2026-04-29 11:38 | 41.25591 | 69.27538 | 1423 ft | 21 kts | 261° |
| 2026-04-29 11:38 | 41.25563 | 69.27288 | 1422 ft | 36 kts | 262° |
| 2026-04-29 11:38 | 41.25520 | 69.26897 | 1422 ft | 44 kts | 262° |
| 2026-04-29 11:39 | 41.25479 | 69.26516 | 1422 ft | 40 kts | 262° |
| 2026-04-29 11:39 | 41.25438 | 69.26149 | 1422 ft | 38 kts | 261° |
| 2026-04-29 11:39 | 41.25418 | 69.25964 | 1422 ft | 4 kts | 261° |
| 2026-04-29 11:39 | 41.25412 | 69.25915 | 1422 ft | 7 kts | 261° |
| 2026-04-29 11:40 | 41.25428 | 69.25829 | 1422 ft | 11 kts | 323° |
| 2026-04-29 11:40 | 41.25496 | 69.25806 | 1422 ft | 9 kts | 352° |
| 2026-04-29 11:40 | 41.25547 | 69.25797 | 1422 ft | 5 kts | 1° |
| 2026-04-29 11:40 | 41.25581 | 69.25820 | 1422 ft | 11 kts | 47° |
| 2026-04-29 11:41 | 41.25610 | 69.25969 | 1422 ft | 19 kts | 82° |
| 2026-04-29 11:41 | 41.25652 | 69.26344 | 1422 ft | 74 kts | 81° |
| 2026-04-29 11:41 | 41.25763 | 69.27341 | 1423 ft | 142 kts | 81° |
| 2026-04-29 11:41 | 41.25924 | 69.28902 | 1532 ft | 190 kts | 80° |
| 2026-04-29 11:42 | 41.26107 | 69.30633 | 2397 ft | 188 kts | 78° |
| 2026-04-29 11:42 | 41.26288 | 69.32243 | 3299 ft | 178 kts | 79° |
| 2026-04-29 11:42 | 41.26476 | 69.33946 | 3560 ft | 197 kts | 79° |
| 2026-04-29 11:42 | 41.26542 | 69.35816 | 4034 ft | 206 kts | 98° |
| 2026-04-29 11:43 | 41.25893 | 69.37566 | 4345 ft | 225 kts | 135° |
| 2026-04-29 11:43 | 41.24511 | 69.38607 | 4788 ft | 239 kts | 167° |
| 2026-04-29 11:43 | 41.22808 | 69.38647 | 5214 ft | 256 kts | 197° |
| 2026-04-29 11:43 | 41.21212 | 69.37533 | 5762 ft | 265 kts | 224° |
| 2026-04-29 11:44 | 41.20164 | 69.35537 | 6398 ft | 270 kts | 252° |
| 2026-04-29 11:44 | 41.19865 | 69.33035 | 6955 ft | 281 kts | 271° |
| 2026-04-29 11:44 | 41.20007 | 69.30454 | 7710 ft | 284 kts | 278° |
| 2026-04-29 11:44 | 41.20256 | 69.27878 | 8475 ft | 288 kts | 278° |
| 2026-04-29 11:45 | 41.20484 | 69.25206 | 9225 ft | 292 kts | 277° |
| 2026-04-29 11:45 | 41.20688 | 69.22530 | 9908 ft | 299 kts | 276° |
| 2026-04-29 11:45 | 41.20883 | 69.19762 | 10573 ft | 306 kts | 276° |
| 2026-04-29 11:45 | 41.21075 | 69.16847 | 10922 ft | 325 kts | 275° |
| 2026-04-29 11:46 | 41.21275 | 69.13763 | 11266 ft | 344 kts | 275° |
| 2026-04-29 11:46 | 41.21482 | 69.10534 | 11724 ft | 357 kts | 275° |
| 2026-04-29 11:46 | 41.21691 | 69.07253 | 12503 ft | 360 kts | 275° |
| 2026-04-29 11:46 | 41.21899 | 69.03955 | 13166 ft | 366 kts | 275° |
| 2026-04-29 11:47 | 41.22110 | 69.00604 | 13932 ft | 368 kts | 275° |
| 2026-04-29 11:47 | 41.22323 | 68.97198 | 14641 ft | 372 kts | 275° |
| 2026-04-29 11:47 | 41.22538 | 68.93730 | 15361 ft | 376 kts | 275° |
| 2026-04-29 11:47 | 41.22752 | 68.90282 | 16073 ft | 378 kts | 275° |
| 2026-04-29 11:48 | 41.22969 | 68.86759 | 16702 ft | 383 kts | 275° |
| 2026-04-29 11:48 | 41.23183 | 68.83277 | 17320 ft | 387 kts | 275° |
| 2026-04-29 11:48 | 41.23401 | 68.79694 | 17966 ft | 390 kts | 275° |
| 2026-04-29 11:48 | 41.23619 | 68.76104 | 18658 ft | 391 kts | 275° |
| 2026-04-29 11:49 | 41.23836 | 68.72525 | 19269 ft | 394 kts | 274° |
| 2026-04-29 11:49 | 41.24052 | 68.68941 | 19924 ft | 395 kts | 274° |
| 2026-04-29 11:49 | 41.24274 | 68.65229 | 20466 ft | 399 kts | 274° |
| 2026-04-29 11:49 | 41.24490 | 68.61596 | 21091 ft | 401 kts | 274° |
| 2026-04-29 11:50 | 41.24710 | 68.57870 | 21706 ft | 403 kts | 274° |
| 2026-04-29 11:50 | 41.24929 | 68.54137 | 22226 ft | 407 kts | 274° |
| 2026-04-29 11:50 | 41.25147 | 68.50414 | 22814 ft | 408 kts | 274° |
| 2026-04-29 11:50 | 41.25367 | 68.46637 | 23343 ft | 410 kts | 274° |
| 2026-04-29 11:51 | 41.25584 | 68.42876 | 23814 ft | 414 kts | 274° |
| 2026-04-29 11:51 | 41.25801 | 68.39071 | 24327 ft | 416 kts | 274° |
| 2026-04-29 11:51 | 41.26020 | 68.35208 | 24787 ft | 419 kts | 274° |
| 2026-04-29 11:51 | 41.26241 | 68.31319 | 25240 ft | 421 kts | 273° |
| 2026-04-29 11:52 | 41.26460 | 68.27428 | 25719 ft | 423 kts | 273° |
| 2026-04-29 11:52 | 41.26680 | 68.23508 | 26071 ft | 427 kts | 273° |
| 2026-04-29 11:52 | 41.26903 | 68.19546 | 26508 ft | 429 kts | 273° |
| 2026-04-29 11:52 | 41.27123 | 68.15614 | 26940 ft | 431 kts | 273° |
| 2026-04-29 11:53 | 41.27343 | 68.11615 | 27328 ft | 433 kts | 273° |
| 2026-04-29 11:53 | 41.27561 | 68.07631 | 27734 ft | 435 kts | 273° |
| 2026-04-29 11:53 | 41.27783 | 68.03560 | 28090 ft | 438 kts | 273° |
| 2026-04-29 11:53 | 41.28003 | 67.99521 | 28509 ft | 440 kts | 273° |
| 2026-04-29 11:54 | 41.28222 | 67.95455 | 28808 ft | 444 kts | 274° |
| 2026-04-29 11:54 | 41.28661 | 67.91397 | 29222 ft | 446 kts | 280° |
| 2026-04-29 11:54 | 41.29293 | 67.87361 | 29503 ft | 450 kts | 280° |
| 2026-04-29 11:54 | 41.29925 | 67.83263 | 29910 ft | 451 kts | 280° |
| 2026-04-29 11:55 | 41.30550 | 67.79219 | 30181 ft | 454 kts | 280° |
| 2026-04-29 11:55 | 41.31187 | 67.75096 | 30525 ft | 456 kts | 280° |
| 2026-04-29 11:55 | 41.31829 | 67.70943 | 30859 ft | 458 kts | 280° |
| 2026-04-29 11:55 | 41.32470 | 67.66786 | 31156 ft | 460 kts | 280° |
| 2026-04-29 11:56 | 41.33110 | 67.62630 | 31590 ft | 459 kts | 279° |
| 2026-04-29 11:56 | 41.33746 | 67.58487 | 31968 ft | 459 kts | 279° |
| 2026-04-29 11:56 | 41.34378 | 67.54369 | 32320 ft | 459 kts | 279° |
| 2026-04-29 11:56 | 41.35006 | 67.50260 | 32656 ft | 458 kts | 279° |
| 2026-04-29 11:57 | 41.35643 | 67.46082 | 32983 ft | 458 kts | 279° |
| 2026-04-29 11:57 | 41.36275 | 67.41933 | 33316 ft | 458 kts | 279° |
| 2026-04-29 11:57 | 41.36900 | 67.37808 | 33613 ft | 457 kts | 279° |
| 2026-04-29 11:57 | 41.37529 | 67.33652 | 33912 ft | 456 kts | 278° |
| 2026-04-29 11:58 | 41.38777 | 67.25370 | 33925 ft | 454 kts | 278° |
| 2026-04-29 11:58 | 41.40006 | 67.17185 | 33922 ft | 451 kts | 279° |
| 2026-04-29 11:59 | 41.41227 | 67.08998 | 33923 ft | 453 kts | 278° |
| 2026-04-29 11:59 | 41.42452 | 67.00754 | 33923 ft | 453 kts | 278° |
| 2026-04-29 12:00 | 41.43663 | 66.92551 | 33924 ft | 454 kts | 278° |
| 2026-04-29 12:00 | 41.44879 | 66.84276 | 33919 ft | 454 kts | 278° |
| 2026-04-29 12:01 | 41.46077 | 66.76082 | 33914 ft | 454 kts | 278° |
| 2026-04-29 12:01 | 41.47272 | 66.67863 | 33914 ft | 455 kts | 278° |
| 2026-04-29 12:02 | 41.48190 | 66.59541 | 33935 ft | 449 kts | 269° |
| 2026-04-29 12:02 | 41.48267 | 66.51244 | 33930 ft | 449 kts | 268° |
| 2026-04-29 12:03 | 41.48310 | 66.43037 | 33934 ft | 448 kts | 267° |
| 2026-04-29 12:03 | 41.48331 | 66.34731 | 33932 ft | 448 kts | 267° |
| 2026-04-29 12:04 | 41.48341 | 66.26386 | 33933 ft | 447 kts | 266° |
| 2026-04-29 12:04 | 41.48343 | 66.18153 | 33931 ft | 448 kts | 266° |
| 2026-04-29 12:05 | 41.48340 | 66.11225 | 33932 ft | 448 kts | 266° |
| 2026-04-29 12:05 | 41.48327 | 66.01562 | 33929 ft | 448 kts | 266° |
| 2026-04-29 12:06 | 41.48309 | 65.93265 | 33922 ft | 449 kts | 266° |
| 2026-04-29 12:06 | 41.48286 | 65.84998 | 33928 ft | 448 kts | 266° |
| 2026-04-29 12:07 | 41.48243 | 65.76691 | 33921 ft | 449 kts | 266° |
| 2026-04-29 12:07 | 41.48154 | 65.68423 | 33913 ft | 450 kts | 266° |
| 2026-04-29 12:08 | 41.48061 | 65.60107 | 33916 ft | 450 kts | 266° |
| 2026-04-29 12:08 | 41.47961 | 65.51781 | 33911 ft | 450 kts | 266° |
| 2026-04-29 12:09 | 41.47855 | 65.43439 | 33921 ft | 449 kts | 266° |
| 2026-04-29 12:09 | 41.47744 | 65.35184 | 33921 ft | 448 kts | 266° |
| 2026-04-29 12:10 | 41.47627 | 65.26907 | 33928 ft | 448 kts | 266° |
| 2026-04-29 12:10 | 41.47504 | 65.18627 | 33920 ft | 447 kts | 266° |
| 2026-04-29 12:11 | 41.47375 | 65.10384 | 33921 ft | 448 kts | 266° |
| 2026-04-29 12:11 | 41.47240 | 65.02087 | 33914 ft | 450 kts | 266° |
| 2026-04-29 12:12 | 41.47098 | 64.93747 | 33914 ft | 449 kts | 266° |
| 2026-04-29 12:12 | 41.46952 | 64.85493 | 33926 ft | 449 kts | 266° |
| 2026-04-29 12:13 | 41.46799 | 64.77185 | 33932 ft | 447 kts | 266° |
| 2026-04-29 12:13 | 41.46640 | 64.68932 | 33941 ft | 445 kts | 266° |
| 2026-04-29 12:14 | 41.46476 | 64.60691 | 33945 ft | 445 kts | 266° |
| 2026-04-29 12:14 | 41.46306 | 64.52447 | 33955 ft | 447 kts | 267° |
| 2026-04-29 12:15 | 41.46131 | 64.44205 | 33965 ft | 446 kts | 267° |
| 2026-04-29 12:15 | 41.45950 | 64.36011 | 33965 ft | 444 kts | 267° |
| 2026-04-29 12:16 | 41.45763 | 64.27788 | 33969 ft | 445 kts | 266° |
| 2026-04-29 12:16 | 41.45571 | 64.19595 | 33965 ft | 447 kts | 266° |
| 2026-04-29 12:17 | 41.45371 | 64.11303 | 33960 ft | 445 kts | 266° |
| 2026-04-29 12:17 | 41.45166 | 64.03084 | 33954 ft | 445 kts | 267° |
| 2026-04-29 12:18 | 41.44957 | 63.94910 | 33953 ft | 445 kts | 267° |
| 2026-04-29 12:18 | 41.44740 | 63.86663 | 33950 ft | 445 kts | 267° |
| 2026-04-29 12:19 | 41.44518 | 63.78444 | 33946 ft | 444 kts | 267° |
| 2026-04-29 12:19 | 41.44291 | 63.70259 | 33947 ft | 443 kts | 267° |
| 2026-04-29 12:20 | 41.44051 | 63.62066 | 33944 ft | 445 kts | 267° |
| 2026-04-29 12:20 | 41.43799 | 63.53862 | 33939 ft | 445 kts | 268° |
| 2026-04-29 12:21 | 41.43541 | 63.45638 | 33942 ft | 446 kts | 268° |
| 2026-04-29 12:21 | 41.43278 | 63.37442 | 33929 ft | 445 kts | 268° |
| 2026-04-29 12:22 | 41.43008 | 63.29196 | 33925 ft | 445 kts | 267° |
| 2026-04-29 12:22 | 41.42733 | 63.21012 | 33920 ft | 446 kts | 267° |
| 2026-04-29 12:23 | 41.42451 | 63.12767 | 33917 ft | 447 kts | 267° |
| 2026-04-29 12:23 | 41.42165 | 63.04559 | 33919 ft | 446 kts | 267° |
| 2026-04-29 12:24 | 41.41869 | 62.96289 | 33920 ft | 447 kts | 268° |
| 2026-04-29 12:24 | 41.41569 | 62.88038 | 33916 ft | 447 kts | 268° |
| 2026-04-29 12:25 | 41.41266 | 62.79838 | 33916 ft | 447 kts | 268° |
| 2026-04-29 12:26 | 41.40795 | 62.67453 | 33914 ft | 448 kts | 268° |
| 2026-04-29 12:26 | 41.40475 | 62.59230 | 33913 ft | 447 kts | 267° |
| 2026-04-29 12:27 | 41.40147 | 62.50944 | 33914 ft | 446 kts | 268° |
| 2026-04-29 12:27 | 41.39842 | 62.42732 | 33913 ft | 446 kts | 268° |
| 2026-04-29 12:28 | 41.39532 | 62.34499 | 33908 ft | 447 kts | 267° |
| 2026-04-29 12:28 | 41.39214 | 62.26222 | 33913 ft | 446 kts | 267° |
| 2026-04-29 12:29 | 41.38894 | 62.18039 | 33910 ft | 447 kts | 267° |
| 2026-04-29 12:29 | 41.38564 | 62.09747 | 33917 ft | 448 kts | 267° |
| 2026-04-29 12:30 | 41.38230 | 62.01495 | 33915 ft | 448 kts | 267° |
| 2026-04-29 12:30 | 41.37889 | 61.93244 | 33915 ft | 447 kts | 267° |
| 2026-04-29 12:31 | 41.37543 | 61.85002 | 33914 ft | 447 kts | 267° |
| 2026-04-29 12:31 | 41.37194 | 61.76821 | 33918 ft | 448 kts | 267° |
| 2026-04-29 12:32 | 41.36834 | 61.68520 | 33915 ft | 447 kts | 267° |
| 2026-04-29 12:32 | 41.36472 | 61.60336 | 33914 ft | 448 kts | 267° |
| 2026-04-29 12:33 | 41.36099 | 61.52035 | 33911 ft | 448 kts | 267° |
| 2026-04-29 12:33 | 41.35724 | 61.43791 | 33908 ft | 449 kts | 266° |
| 2026-04-29 12:34 | 41.35345 | 61.35554 | 33914 ft | 450 kts | 266° |
| 2026-04-29 12:34 | 41.34958 | 61.27243 | 33917 ft | 449 kts | 266° |
| 2026-04-29 12:35 | 41.34565 | 61.18967 | 33924 ft | 449 kts | 266° |
| 2026-04-29 12:35 | 41.34169 | 61.10719 | 33921 ft | 448 kts | 266° |
| 2026-04-29 12:36 | 41.33833 | 61.03835 | 33922 ft | 447 kts | 266° |
| 2026-04-29 12:36 | 41.33355 | 60.94182 | 33923 ft | 451 kts | 266° |
| 2026-04-29 12:37 | 41.32939 | 60.85892 | 33923 ft | 450 kts | 266° |
| 2026-04-29 12:37 | 41.32517 | 60.77631 | 33926 ft | 450 kts | 266° |
| 2026-04-29 12:38 | 41.32090 | 60.69360 | 33931 ft | 449 kts | 266° |
| 2026-04-29 12:38 | 41.31655 | 60.61060 | 33920 ft | 449 kts | 266° |
| 2026-04-29 12:39 | 41.31218 | 60.52837 | 33915 ft | 448 kts | 266° |
| 2026-04-29 12:39 | 41.30778 | 60.44599 | 33911 ft | 447 kts | 267° |
| 2026-04-29 12:40 | 41.31024 | 60.36319 | 33903 ft | 448 kts | 273° |
| 2026-04-29 12:40 | 41.31419 | 60.28046 | 33906 ft | 450 kts | 273° |
| 2026-04-29 12:41 | 41.31817 | 60.19797 | 33906 ft | 450 kts | 273° |
| 2026-04-29 12:41 | 41.32217 | 60.11480 | 33904 ft | 448 kts | 273° |
| 2026-04-29 12:42 | 41.32613 | 60.03217 | 33906 ft | 449 kts | 273° |
| 2026-04-29 12:42 | 41.33013 | 59.94982 | 33900 ft | 449 kts | 273° |
| 2026-04-29 12:43 | 41.33409 | 59.86730 | 33904 ft | 447 kts | 272° |
| 2026-04-29 12:43 | 41.33799 | 59.78475 | 33909 ft | 448 kts | 272° |
| 2026-04-29 12:44 | 41.34185 | 59.70174 | 33900 ft | 447 kts | 272° |
| 2026-04-29 12:44 | 41.33844 | 59.61984 | 33911 ft | 447 kts | 263° |
| 2026-04-29 12:45 | 41.33115 | 59.53814 | 33912 ft | 447 kts | 262° |
| 2026-04-29 12:45 | 41.32361 | 59.45652 | 33907 ft | 445 kts | 262° |
| 2026-04-29 12:46 | 41.31593 | 59.37485 | 33912 ft | 445 kts | 262° |
| 2026-04-29 12:46 | 41.30817 | 59.29335 | 33911 ft | 445 kts | 261° |
| 2026-04-29 12:47 | 41.30033 | 59.21177 | 33917 ft | 445 kts | 261° |
| 2026-04-29 12:47 | 41.29246 | 59.13055 | 33916 ft | 445 kts | 261° |
| 2026-04-29 12:48 | 41.28452 | 59.04910 | 33919 ft | 445 kts | 261° |
| 2026-04-29 12:48 | 41.27645 | 58.96754 | 33916 ft | 443 kts | 261° |
| 2026-04-29 12:49 | 41.26849 | 58.88682 | 33918 ft | 444 kts | 261° |
| 2026-04-29 12:49 | 41.26036 | 58.80522 | 33915 ft | 445 kts | 261° |
| 2026-04-29 12:50 | 41.25216 | 58.72358 | 33914 ft | 446 kts | 261° |
| 2026-04-29 12:50 | 41.24388 | 58.64184 | 33914 ft | 446 kts | 261° |
| 2026-04-29 12:51 | 41.23563 | 58.56091 | 33912 ft | 446 kts | 261° |
| 2026-04-29 12:51 | 41.22728 | 58.47960 | 33912 ft | 446 kts | 261° |
| 2026-04-29 12:52 | 41.21882 | 58.39778 | 33908 ft | 447 kts | 261° |
| 2026-04-29 12:52 | 41.21036 | 58.31653 | 33910 ft | 446 kts | 260° |
| 2026-04-29 12:53 | 41.20182 | 58.23519 | 33910 ft | 445 kts | 260° |
| 2026-04-29 12:53 | 41.19326 | 58.15412 | 33910 ft | 447 kts | 259° |
| 2026-04-29 12:54 | 41.18602 | 58.08600 | 33910 ft | 447 kts | 259° |
| 2026-04-29 12:54 | 41.17590 | 57.99138 | 33910 ft | 447 kts | 259° |
| 2026-04-29 12:55 | 41.16712 | 57.90983 | 33915 ft | 448 kts | 259° |
| 2026-04-29 12:55 | 41.15825 | 57.82812 | 33920 ft | 446 kts | 259° |
| 2026-04-29 12:56 | 41.14939 | 57.74697 | 33927 ft | 447 kts | 259° |
| 2026-04-29 12:56 | 41.14044 | 57.66555 | 33925 ft | 447 kts | 259° |
| 2026-04-29 12:57 | 41.13145 | 57.58437 | 33929 ft | 446 kts | 259° |
| 2026-04-29 12:57 | 41.12239 | 57.50294 | 33927 ft | 446 kts | 259° |
| 2026-04-29 12:58 | 41.11330 | 57.42182 | 33931 ft | 446 kts | 259° |
| 2026-04-29 12:58 | 41.10418 | 57.34105 | 33924 ft | 446 kts | 258° |
| 2026-04-29 12:59 | 41.09495 | 57.25985 | 33928 ft | 446 kts | 258° |
| 2026-04-29 12:59 | 41.08566 | 57.17854 | 33933 ft | 447 kts | 258° |
| 2026-04-29 13:00 | 41.07637 | 57.09776 | 33931 ft | 445 kts | 258° |
| 2026-04-29 13:00 | 41.06702 | 57.01699 | 33936 ft | 446 kts | 258° |
| 2026-04-29 13:01 | 41.05764 | 56.93642 | 33940 ft | 444 kts | 258° |
| 2026-04-29 13:01 | 41.04817 | 56.85567 | 33949 ft | 444 kts | 258° |
| 2026-04-29 13:02 | 41.03868 | 56.77523 | 33954 ft | 444 kts | 258° |
| 2026-04-29 13:02 | 41.02910 | 56.69453 | 33945 ft | 445 kts | 258° |
| 2026-04-29 13:03 | 41.01948 | 56.61396 | 33941 ft | 445 kts | 258° |
| 2026-04-29 13:03 | 41.00976 | 56.53309 | 33924 ft | 445 kts | 258° |
| 2026-04-29 13:04 | 41.00629 | 56.45182 | 33929 ft | 448 kts | 266° |
| 2026-04-29 13:04 | 41.00522 | 56.36926 | 33930 ft | 448 kts | 266° |
| 2026-04-29 13:05 | 41.00417 | 56.28735 | 33935 ft | 447 kts | 265° |
| 2026-04-29 13:05 | 41.00309 | 56.20509 | 33935 ft | 448 kts | 265° |
| 2026-04-29 13:06 | 41.00197 | 56.12319 | 33922 ft | 448 kts | 265° |
| 2026-04-29 13:06 | 41.00079 | 56.04063 | 33917 ft | 448 kts | 265° |
| 2026-04-29 13:07 | 40.99956 | 55.95888 | 33925 ft | 447 kts | 265° |
| 2026-04-29 13:07 | 40.99827 | 55.87711 | 33944 ft | 447 kts | 265° |
| 2026-04-29 13:08 | 40.99692 | 55.79499 | 33937 ft | 447 kts | 265° |
| 2026-04-29 13:08 | 40.99565 | 55.71295 | 33951 ft | 448 kts | 265° |
| 2026-04-29 13:09 | 40.99436 | 55.63062 | 33964 ft | 448 kts | 265° |
| 2026-04-29 13:09 | 40.99301 | 55.54889 | 33967 ft | 447 kts | 265° |
| 2026-04-29 13:10 | 40.99161 | 55.46701 | 33952 ft | 446 kts | 265° |
| 2026-04-29 13:10 | 40.99014 | 55.38477 | 33955 ft | 447 kts | 265° |
| 2026-04-29 13:11 | 40.98862 | 55.30324 | 33967 ft | 446 kts | 264° |
| 2026-04-29 13:11 | 40.98704 | 55.22126 | 33963 ft | 445 kts | 264° |
| 2026-04-29 13:12 | 40.98540 | 55.13968 | 33955 ft | 446 kts | 264° |
| 2026-04-29 13:12 | 40.98370 | 55.05790 | 33956 ft | 447 kts | 264° |
| 2026-04-29 13:13 | 40.98195 | 54.97583 | 33963 ft | 447 kts | 264° |
| 2026-04-29 13:13 | 40.98015 | 54.89388 | 33951 ft | 445 kts | 264° |
| 2026-04-29 13:14 | 40.97820 | 54.81221 | 33970 ft | 445 kts | 264° |
| 2026-04-29 13:14 | 40.97621 | 54.73107 | 33965 ft | 444 kts | 264° |
| 2026-04-29 13:15 | 40.97415 | 54.64957 | 33946 ft | 445 kts | 264° |
| 2026-04-29 13:15 | 40.97204 | 54.56791 | 33955 ft | 444 kts | 264° |
| 2026-04-29 13:16 | 40.96986 | 54.48625 | 33959 ft | 445 kts | 264° |
| 2026-04-29 13:16 | 40.96764 | 54.40508 | 33963 ft | 446 kts | 264° |
| 2026-04-29 13:17 | 40.96535 | 54.32341 | 33965 ft | 445 kts | 263° |
| 2026-04-29 13:17 | 40.96302 | 54.24202 | 33964 ft | 443 kts | 263° |
| 2026-04-29 13:18 | 40.96063 | 54.16093 | 33954 ft | 443 kts | 263° |
| 2026-04-29 13:18 | 40.95818 | 54.07991 | 33962 ft | 443 kts | 263° |
| 2026-04-29 13:19 | 40.95569 | 53.99902 | 33971 ft | 442 kts | 263° |
| 2026-04-29 13:19 | 40.95312 | 53.91782 | 33969 ft | 443 kts | 263° |
| 2026-04-29 13:20 | 40.95050 | 53.83657 | 33955 ft | 443 kts | 263° |
| 2026-04-29 13:20 | 40.94783 | 53.75544 | 33965 ft | 441 kts | 263° |
| 2026-04-29 13:21 | 40.94512 | 53.67489 | 33982 ft | 442 kts | 263° |
| 2026-04-29 13:21 | 40.94234 | 53.59401 | 33968 ft | 442 kts | 263° |
| 2026-04-29 13:22 | 40.93950 | 53.51313 | 33977 ft | 440 kts | 263° |
| 2026-04-29 13:22 | 40.93662 | 53.43248 | 33986 ft | 439 kts | 263° |
| 2026-04-29 13:23 | 40.93370 | 53.35243 | 33987 ft | 438 kts | 263° |
| 2026-04-29 13:23 | 40.93070 | 53.27188 | 33981 ft | 439 kts | 262° |
| 2026-04-29 13:24 | 40.92768 | 53.19215 | 33993 ft | 437 kts | 262° |
| 2026-04-29 13:24 | 40.92457 | 53.11179 | 33994 ft | 438 kts | 262° |
| 2026-04-29 13:25 | 40.92135 | 53.03191 | 33998 ft | 436 kts | 262° |
| 2026-04-29 13:25 | 40.91642 | 52.91223 | 34004 ft | 437 kts | 262° |
| 2026-04-29 13:26 | 40.91305 | 52.83206 | 33997 ft | 436 kts | 262° |
| 2026-04-29 13:26 | 40.90964 | 52.75244 | 33993 ft | 438 kts | 262° |
| 2026-04-29 13:27 | 40.90614 | 52.67188 | 33993 ft | 437 kts | 262° |
| 2026-04-29 13:27 | 40.90078 | 52.59271 | 33998 ft | 433 kts | 254° |
| 2026-04-29 13:28 | 40.88870 | 52.51492 | 34006 ft | 433 kts | 254° |
| 2026-04-29 13:28 | 40.87655 | 52.43692 | 34006 ft | 433 kts | 254° |
| 2026-04-29 13:29 | 40.86436 | 52.35943 | 34020 ft | 433 kts | 254° |
| 2026-04-29 13:29 | 40.85225 | 52.28302 | 34024 ft | 433 kts | 254° |
| 2026-04-29 13:30 | 40.83986 | 52.20498 | 34032 ft | 433 kts | 254° |
| 2026-04-29 13:30 | 40.82746 | 52.12737 | 34032 ft | 433 kts | 254° |
| 2026-04-29 13:31 | 40.82140 | 52.08940 | 34022 ft | 418 kts | 254° |
| 2026-04-29 13:31 | 40.81554 | 52.05268 | 34018 ft | 399 kts | 253° |
| 2026-04-29 13:31 | 40.81037 | 52.02050 | 34013 ft | 383 kts | 253° |
| 2026-04-29 13:31 | 40.80793 | 52.00533 | 34000 ft | 374 kts | 253° |
| 2026-04-29 13:32 | 40.79695 | 51.93781 | 34039 ft | 384 kts | 253° |
| 2026-04-29 13:32 | 40.78560 | 51.86814 | 34044 ft | 397 kts | 253° |
| 2026-04-29 13:33 | 40.77386 | 51.79634 | 34043 ft | 409 kts | 253° |
| 2026-04-29 13:33 | 40.76172 | 51.72201 | 34044 ft | 421 kts | 254° |
| 2026-04-29 13:34 | 40.74922 | 51.64593 | 34048 ft | 432 kts | 254° |
| 2026-04-29 13:34 | 40.73632 | 51.56782 | 34053 ft | 443 kts | 254° |
| 2026-04-29 13:35 | 40.72486 | 51.48697 | 34057 ft | 453 kts | 263° |
| 2026-04-29 13:35 | 40.72142 | 51.40416 | 34055 ft | 453 kts | 263° |
| 2026-04-29 13:36 | 40.71802 | 51.32156 | 34062 ft | 453 kts | 263° |
| 2026-04-29 13:36 | 40.71463 | 51.23909 | 34066 ft | 452 kts | 263° |
| 2026-04-29 13:37 | 40.71121 | 51.15671 | 34069 ft | 451 kts | 263° |
| 2026-04-29 13:37 | 40.70776 | 51.07463 | 34072 ft | 451 kts | 263° |
| 2026-04-29 13:38 | 40.70424 | 50.99209 | 34072 ft | 452 kts | 263° |
| 2026-04-29 13:38 | 40.70065 | 50.90971 | 34075 ft | 451 kts | 263° |
| 2026-04-29 13:39 | 40.69701 | 50.82755 | 34077 ft | 452 kts | 263° |
| 2026-04-29 13:39 | 40.69327 | 50.74459 | 34079 ft | 454 kts | 263° |
| 2026-04-29 13:40 | 40.68951 | 50.66194 | 34079 ft | 453 kts | 263° |
| 2026-04-29 13:40 | 40.68567 | 50.57922 | 34080 ft | 452 kts | 264° |
| 2026-04-29 13:41 | 40.68179 | 50.49653 | 34080 ft | 453 kts | 264° |
| 2026-04-29 13:41 | 40.68418 | 50.41382 | 34097 ft | 459 kts | 279° |
| 2026-04-29 13:42 | 40.69933 | 50.33218 | 34087 ft | 462 kts | 280° |
| 2026-04-29 13:42 | 40.71492 | 50.24998 | 34087 ft | 462 kts | 280° |
| 2026-04-29 13:43 | 40.73060 | 50.16779 | 34092 ft | 463 kts | 281° |
| 2026-04-29 13:43 | 40.74614 | 50.08625 | 34093 ft | 462 kts | 281° |
| 2026-04-29 13:44 | 40.76177 | 50.00398 | 34091 ft | 460 kts | 281° |
| 2026-04-29 13:44 | 40.77724 | 49.92222 | 34104 ft | 462 kts | 281° |
| 2026-04-29 13:45 | 40.79263 | 49.84068 | 34096 ft | 461 kts | 281° |
| 2026-04-29 13:45 | 40.80808 | 49.75837 | 34101 ft | 462 kts | 281° |
| 2026-04-29 13:46 | 40.82337 | 49.67654 | 34107 ft | 462 kts | 281° |
| 2026-04-29 13:46 | 40.83872 | 49.59410 | 34109 ft | 464 kts | 281° |
| 2026-04-29 13:47 | 40.85403 | 49.51157 | 34106 ft | 464 kts | 281° |
| 2026-04-29 13:47 | 40.86923 | 49.42922 | 34112 ft | 463 kts | 281° |
| 2026-04-29 13:48 | 40.88438 | 49.34673 | 34109 ft | 463 kts | 280° |
| 2026-04-29 13:48 | 40.89858 | 49.26384 | 34113 ft | 463 kts | 280° |
| 2026-04-29 13:49 | 40.91265 | 49.18095 | 34115 ft | 463 kts | 280° |
| 2026-04-29 13:49 | 40.92666 | 49.09806 | 34098 ft | 461 kts | 279° |
| 2026-04-29 13:50 | 40.94058 | 49.01530 | 34094 ft | 462 kts | 280° |
| 2026-04-29 13:50 | 40.95450 | 48.93215 | 34082 ft | 464 kts | 280° |
| 2026-04-29 13:51 | 40.96836 | 48.84901 | 34083 ft | 464 kts | 280° |
| 2026-04-29 13:51 | 40.98206 | 48.76638 | 34083 ft | 464 kts | 280° |
| 2026-04-29 13:52 | 40.99580 | 48.68319 | 34074 ft | 464 kts | 280° |
| 2026-04-29 13:52 | 41.00946 | 48.60007 | 34071 ft | 463 kts | 280° |
| 2026-04-29 13:53 | 41.02307 | 48.51677 | 34069 ft | 462 kts | 280° |
| 2026-04-29 13:53 | 41.03654 | 48.43397 | 34065 ft | 463 kts | 280° |
| 2026-04-29 13:54 | 41.05000 | 48.35088 | 34073 ft | 462 kts | 280° |
| 2026-04-29 13:54 | 41.06342 | 48.26760 | 34073 ft | 462 kts | 279° |
| 2026-04-29 13:55 | 41.07675 | 48.18448 | 34072 ft | 463 kts | 279° |
| 2026-04-29 13:55 | 41.09002 | 48.10131 | 34066 ft | 464 kts | 279° |
| 2026-04-29 13:56 | 41.10324 | 48.01813 | 34067 ft | 463 kts | 279° |
| 2026-04-29 13:56 | 41.11644 | 47.93459 | 34065 ft | 462 kts | 279° |
| 2026-04-29 13:57 | 41.12952 | 47.85144 | 34058 ft | 461 kts | 279° |
| 2026-04-29 13:57 | 41.14040 | 47.78201 | 34052 ft | 462 kts | 279° |
| 2026-04-29 13:58 | 41.15546 | 47.68535 | 34055 ft | 462 kts | 279° |
| 2026-04-29 13:58 | 41.16833 | 47.60233 | 34057 ft | 462 kts | 279° |
| 2026-04-29 13:59 | 41.18122 | 47.51874 | 34063 ft | 462 kts | 279° |
| 2026-04-29 13:59 | 41.19399 | 47.43555 | 34063 ft | 461 kts | 279° |
| 2026-04-29 14:00 | 41.20662 | 47.35278 | 34058 ft | 461 kts | 279° |
| 2026-04-29 14:00 | 41.21924 | 47.26972 | 34067 ft | 461 kts | 279° |
| 2026-04-29 14:01 | 41.23189 | 47.18604 | 34062 ft | 461 kts | 279° |
| 2026-04-29 14:01 | 41.24393 | 47.10593 | 34063 ft | 462 kts | 279° |
| 2026-04-29 14:02 | 41.25649 | 47.02197 | 34055 ft | 463 kts | 279° |
| 2026-04-29 14:02 | 41.26890 | 46.93859 | 34044 ft | 461 kts | 279° |
| 2026-04-29 14:03 | 41.28135 | 46.85445 | 34044 ft | 461 kts | 279° |
| 2026-04-29 14:03 | 41.29363 | 46.77104 | 34043 ft | 460 kts | 279° |
| 2026-04-29 14:04 | 41.30552 | 46.68761 | 34039 ft | 460 kts | 278° |
| 2026-04-29 14:04 | 41.31720 | 46.60436 | 34048 ft | 460 kts | 278° |
| 2026-04-29 14:05 | 41.32887 | 46.52084 | 34047 ft | 460 kts | 278° |
| 2026-04-29 14:05 | 41.34042 | 46.43762 | 34053 ft | 461 kts | 278° |
| 2026-04-29 14:06 | 41.35204 | 46.35342 | 34052 ft | 460 kts | 278° |
| 2026-04-29 14:06 | 41.36349 | 46.26999 | 34055 ft | 460 kts | 278° |
| 2026-04-29 14:07 | 41.37485 | 46.18672 | 34060 ft | 459 kts | 278° |
| 2026-04-29 14:07 | 41.38623 | 46.10290 | 34054 ft | 459 kts | 278° |
| 2026-04-29 14:08 | 41.39752 | 46.01925 | 34058 ft | 459 kts | 278° |
| 2026-04-29 14:08 | 41.40870 | 45.93598 | 34060 ft | 458 kts | 278° |
| 2026-04-29 14:09 | 41.41985 | 45.85235 | 34062 ft | 458 kts | 278° |
| 2026-04-29 14:09 | 41.43087 | 45.76932 | 34061 ft | 459 kts | 278° |
| 2026-04-29 14:10 | 41.44190 | 45.68567 | 34060 ft | 458 kts | 277° |
| 2026-04-29 14:10 | 41.45287 | 45.60201 | 34055 ft | 459 kts | 277° |
| 2026-04-29 14:11 | 41.46376 | 45.51841 | 34054 ft | 459 kts | 278° |
| 2026-04-29 14:11 | 41.47457 | 45.43505 | 34053 ft | 458 kts | 277° |
| 2026-04-29 14:12 | 41.48483 | 45.35178 | 34053 ft | 457 kts | 275° |
| 2026-04-29 14:12 | 41.49163 | 45.26757 | 34047 ft | 456 kts | 274° |
| 2026-04-29 14:13 | 41.49842 | 45.18395 | 34043 ft | 455 kts | 274° |
| 2026-04-29 14:13 | 41.50524 | 45.09968 | 34033 ft | 456 kts | 274° |
| 2026-04-29 14:14 | 41.51196 | 45.01596 | 34034 ft | 456 kts | 274° |
| 2026-04-29 14:14 | 41.51865 | 44.93189 | 34032 ft | 455 kts | 274° |
| 2026-04-29 14:15 | 41.52522 | 44.84849 | 34035 ft | 455 kts | 274° |
| 2026-04-29 14:15 | 41.53178 | 44.76457 | 34033 ft | 455 kts | 274° |
| 2026-04-29 14:16 | 41.53825 | 44.68088 | 34045 ft | 455 kts | 273° |
| 2026-04-29 14:16 | 41.54469 | 44.59698 | 34046 ft | 454 kts | 273° |
| 2026-04-29 14:17 | 41.55106 | 44.51304 | 34047 ft | 454 kts | 273° |
| 2026-04-29 14:17 | 41.55731 | 44.42972 | 34052 ft | 455 kts | 273° |
| 2026-04-29 14:18 | 41.56355 | 44.34587 | 34058 ft | 456 kts | 272° |
| 2026-04-29 14:18 | 41.56977 | 44.26145 | 34061 ft | 455 kts | 272° |
| 2026-04-29 14:19 | 41.57620 | 44.17778 | 34064 ft | 455 kts | 273° |
| 2026-04-29 14:19 | 41.58275 | 44.09421 | 34065 ft | 454 kts | 273° |
| 2026-04-29 14:20 | 41.58924 | 44.01045 | 34057 ft | 454 kts | 273° |
| 2026-04-29 14:20 | 41.59570 | 43.92648 | 34058 ft | 453 kts | 273° |
| 2026-04-29 14:21 | 41.60203 | 43.84329 | 34058 ft | 453 kts | 273° |
| 2026-04-29 14:21 | 41.60836 | 43.75923 | 34068 ft | 454 kts | 273° |
| 2026-04-29 14:22 | 41.61460 | 43.67558 | 34070 ft | 454 kts | 273° |
| 2026-04-29 14:22 | 41.62079 | 43.59178 | 34071 ft | 454 kts | 273° |
| 2026-04-29 14:23 | 41.62694 | 43.50772 | 34076 ft | 454 kts | 273° |
| 2026-04-29 14:23 | 41.63303 | 43.42396 | 34078 ft | 453 kts | 273° |
| 2026-04-29 14:24 | 41.63906 | 43.34042 | 34082 ft | 453 kts | 272° |
| 2026-04-29 14:24 | 41.64502 | 43.25686 | 34087 ft | 453 kts | 272° |
| 2026-04-29 14:25 | 41.65094 | 43.17304 | 34081 ft | 453 kts | 272° |
| 2026-04-29 14:25 | 41.65678 | 43.08958 | 34082 ft | 453 kts | 272° |
| 2026-04-29 14:26 | 41.66255 | 43.00604 | 34078 ft | 452 kts | 272° |
| 2026-04-29 14:26 | 41.66831 | 42.92183 | 33507 ft | 458 kts | 273° |
| 2026-04-29 14:27 | 41.67116 | 42.87983 | 32710 ft | 450 kts | 273° |
| 2026-04-29 14:27 | 41.67397 | 42.83794 | 31951 ft | 453 kts | 273° |
| 2026-04-29 14:27 | 41.67677 | 42.79593 | 31201 ft | 458 kts | 274° |
| 2026-04-29 14:28 | 41.68243 | 42.71057 | 29670 ft | 460 kts | 274° |
| 2026-04-29 14:28 | 41.68515 | 42.66957 | 29552 ft | 429 kts | 274° |
| 2026-04-29 14:28 | 41.68771 | 42.63059 | 29012 ft | 408 kts | 274° |
| 2026-04-29 14:28 | 41.69012 | 42.59365 | 27882 ft | 402 kts | 274° |
| 2026-04-29 14:29 | 41.69251 | 42.55651 | 26698 ft | 395 kts | 273° |
| 2026-04-29 14:29 | 41.69481 | 42.52062 | 25566 ft | 388 kts | 274° |
| 2026-04-29 14:29 | 41.69707 | 42.48521 | 24447 ft | 381 kts | 274° |
| 2026-04-29 14:29 | 41.69855 | 42.46193 | 23682 ft | 377 kts | 274° |